TOJ weather

Torrejón Airport
Madrid, Madrid, Spain

Public forecast

Using degrees Celsius for public forecast. Weather courtesy of forecast.io.

Current aviation weather report (METAR) for Torrejón Airport

Retrieved 2020/08/07 14:30 UTC (29 minutes ago):

LETO 071430Z 19005KT CAVOK 37/12 Q1018 NOSIG

Aviation forecast (TAF) for Torrejón Airport

Retrieved 2020/08/07 12:27 UTC (3 hours ago):

TAF LETO 071100Z 0712/0812 21008KT CAVOK TX40/0715Z TN21/0806Z PROB30 TEMPO 0810/0812 FEW100CB